Time;durP1;ratioP1;P1;durP2;ratioP2;P2;SDS_P1;SDS_P2;PMS_P1;PMS_P2;Temp;Humidity;BMP_temperature;BMP_pressure;BME280_temperature;BME280_humidity;BME280_pressure;Samples;Min_cycle;Max_cycle;Signal;HPM_P1;HPM_P2
2022/06/19 00:00:09;;;;;;;7.22;4.18;;;;;;;29.49;38.60;100879.94;5030706;28;97026;-72
2022/06/19 00:02:37;;;;;;;9.07;3.83;;;;;;;29.40;38.88;100876.41;5028057;28;98871;-71
2022/06/19 00:05:05;;;;;;;8.63;4.15;;;;;;;29.27;38.95;100867.88;5028854;28;99126;-71
2022/06/19 00:07:32;;;;;;;12.32;4.50;;;;;;;29.26;38.90;100868.91;5028614;28;97176;-71
2022/06/19 00:09:58;;;;;;;10.63;4.50;;;;;;;29.21;38.80;100869.41;5028677;27;97048;-71
2022/06/19 00:12:25;;;;;;;13.95;4.93;;;;;;;29.27;38.92;100867.88;5026689;28;99710;-71
2022/06/19 00:14:51;;;;;;;8.02;4.25;;;;;;;29.13;39.47;100857.69;5026626;28;98824;-71
2022/06/19 00:17:18;;;;;;;11.43;4.72;;;;;;;29.03;39.46;100840.69;5029623;28;96801;-72
2022/06/19 00:19:44;;;;;;;11.43;4.63;;;;;;;29.10;39.71;100842.53;5025901;27;96855;-72
2022/06/19 00:22:12;;;;;;;10.15;4.30;;;;;;;28.90;39.65;100828.44;5030005;27;99452;-72
2022/06/19 00:24:38;;;;;;;9.65;4.32;;;;;;;29.08;39.63;100816.56;5022030;27;99022;-72
2022/06/19 00:27:05;;;;;;;12.98;4.07;;;;;;;29.03;39.45;100825.22;5025259;28;96863;-72
2022/06/19 00:29:32;;;;;;;10.65;4.32;;;;;;;29.08;39.50;100830.16;5028702;28;97008;-72
2022/06/19 00:31:58;;;;;;;11.73;4.05;;;;;;;28.95;39.34;100827.09;5029085;27;99048;-72
2022/06/19 00:34:25;;;;;;;10.15;4.30;;;;;;;28.74;39.94;100820.31;5025865;27;98945;-72
2022/06/19 00:36:51;;;;;;;6.80;3.90;;;;;;;28.66;40.18;100822.13;5025884;28;98554;-72
2022/06/19 00:39:21;;;;;;;7.95;4.32;;;;;;;28.65;40.17;100821.28;5026444;28;97060;-72
2022/06/19 00:41:48;;;;;;;12.35;4.68;;;;;;;28.77;39.98;100814.53;5031348;27;98945;-73
2022/06/19 00:44:16;;;;;;;18.15;4.32;;;;;;;28.71;39.70;100811.59;5027970;28;99101;-74
2022/06/19 00:46:49;;;;;;;11.05;4.72;;;;;;;28.71;40.17;100798.00;5032095;27;98518;-72
2022/06/19 00:49:23;;;;;;;10.35;4.35;;;;;;;28.61;40.10;100792.75;5026368;27;98380;-72
2022/06/19 00:51:57;;;;;;;9.60;4.10;;;;;;;28.41;40.47;100781.38;5024670;27;99258;-72
2022/06/19 00:54:25;;;;;;;11.55;4.38;;;;;;;28.30;40.74;100776.22;5031084;28;98803;-73
2022/06/19 00:56:51;;;;;;;7.55;4.05;;;;;;;28.37;40.82;100760.09;5029166;27;97744;-72
2022/06/19 00:59:19;;;;;;;7.90;4.20;;;;;;;28.58;40.20;100771.31;5034170;27;97146;-71
2022/06/19 01:01:46;;;;;;;9.88;4.50;;;;;;;28.53;40.26;100771.00;5029792;27;99166;-71
2022/06/19 01:04:20;;;;;;;5.63;4.07;;;;;;;28.74;39.54;100773.22;5028786;27;98886;-71
2022/06/19 01:06:48;;;;;;;9.20;4.22;;;;;;;28.69;39.45;100770.97;5033731;28;97167;-71
2022/06/19 01:09:14;;;;;;;17.15;5.38;;;;;;;28.74;39.28;100765.94;5028090;28;97376;-71
2022/06/19 01:11:43;;;;;;;7.68;4.50;;;;;;;28.48;40.03;100771.50;5034376;27;99104;-72
2022/06/19 01:14:11;;;;;;;13.07;4.75;;;;;;;28.47;40.03;100771.69;5025516;28;99241;-72
2022/06/19 01:16:38;;;;;;;8.60;4.00;;;;;;;28.31;40.39;100766.22;5030564;28;97385;-71
2022/06/19 01:19:06;;;;;;;6.82;4.22;;;;;;;28.60;39.76;100766.59;5030115;27;97085;-71
2022/06/19 01:21:39;;;;;;;10.20;4.75;;;;;;;28.58;39.64;100759.59;5028585;28;99221;-72
2022/06/19 01:24:15;;;;;;;9.60;4.00;;;;;;;28.44;40.26;100758.41;5028117;28;99153;-72
2022/06/19 01:26:46;;;;;;;9.95;3.83;;;;;;;28.50;40.32;100752.28;5030709;27;96846;-72
2022/06/19 01:29:13;;;;;;;9.70;4.32;;;;;;;28.55;39.98;100755.38;5032452;27;98980;-71
2022/06/19 01:31:44;;;;;;;9.40;3.75;;;;;;;28.53;40.06;100733.78;5030443;28;102987;-72
2022/06/19 01:34:27;;;;;;;11.30;4.63;;;;;;;28.42;40.19;100738.72;5030990;27;98750;-71
2022/06/19 01:36:58;;;;;;;8.43;4.65;;;;;;;28.07;41.16;100718.97;5031488;28;96817;-71
2022/06/19 01:39:25;;;;;;;15.90;4.25;;;;;;;28.18;40.56;100711.53;5028903;28;96845;-71
2022/06/19 01:41:53;;;;;;;14.38;4.90;;;;;;;28.15;40.90;100715.44;5029119;28;99054;-72
2022/06/19 01:44:19;;;;;;;9.90;4.43;;;;;;;27.88;41.49;100703.00;5027431;27;98973;-71
2022/06/19 01:46:47;;;;;;;6.50;4.43;;;;;;;27.81;41.77;100695.66;5028077;28;97713;-72
2022/06/19 01:49:14;;;;;;;9.90;4.22;;;;;;;27.71;41.84;100693.09;5030089;27;96823;-72
2022/06/19 01:51:41;;;;;;;9.75;3.80;;;;;;;27.62;42.13;100685.97;5033778;27;101377;-72
2022/06/19 01:54:12;;;;;;;9.88;4.03;;;;;;;27.60;42.16;100679.84;5030773;27;98808;-72
2022/06/19 01:56:39;;;;;;;6.30;4.28;;;;;;;27.43;42.59;100670.78;5026684;27;98665;-72
2022/06/19 01:59:10;;;;;;;10.02;4.05;;;;;;;27.48;42.57;100664.84;5033530;27;96838;-72
2022/06/19 02:01:38;;;;;;;8.05;4.35;;;;;;;27.60;42.16;100666.28;5028589;28;99264;-71
2022/06/19 02:04:06;;;;;;;8.15;3.97;;;;;;;27.37;42.79;100655.97;5031462;28;99178;-72
2022/06/19 02:06:38;;;;;;;8.35;4.30;;;;;;;27.27;43.07;100649.88;5029928;27;96810;-72
2022/06/19 02:09:06;;;;;;;7.57;3.95;;;;;;;27.21;42.84;100655.94;5031945;28;97293;-72
2022/06/19 02:11:35;;;;;;;9.63;4.53;;;;;;;27.36;42.56;100653.47;5033168;27;98693;-72
2022/06/19 02:14:02;;;;;;;7.90;4.75;;;;;;;27.37;42.68;100649.75;5029814;28;99111;-71
2022/06/19 02:16:30;;;;;;;6.10;4.45;;;;;;;27.37;42.73;100650.56;5028539;27;97215;-72
2022/06/19 02:18:56;;;;;;;8.18;4.20;;;;;;;27.19;43.09;100651.69;5026216;27;96903;-72
2022/06/19 02:21:35;;;;;;;7.68;4.10;;;;;;;27.35;42.79;100647.19;5031726;27;99389;-72
2022/06/19 02:24:02;;;;;;;7.43;4.40;;;;;;;27.44;42.59;100644.50;5031597;28;99302;-71
2022/06/19 02:26:28;;;;;;;8.73;4.82;;;;;;;27.56;42.12;100637.78;5031467;27;96952;-73
2022/06/19 02:28:55;;;;;;;6.18;4.25;;;;;;;27.26;42.80;100629.16;5032446;27;96856;-71
2022/06/19 02:31:22;;;;;;;8.43;4.13;;;;;;;27.28;42.56;100623.59;5031190;28;98941;-70
2022/06/19 02:33:52;;;;;;;8.75;4.43;;;;;;;27.07;43.39;100613.16;5031448;28;97992;-71
2022/06/19 02:36:40;;;;;;;6.63;4.50;;;;;;;27.04;43.41;100609.94;5026183;27;97157;-71
2022/06/19 02:39:18;;;;;;;13.63;4.65;;;;;;;27.22;42.91;100594.41;5032344;27;96871;-71
2022/06/19 02:41:50;;;;;;;12.70;4.55;;;;;;;27.29;42.71;100585.44;5032646;28;99270;-71
2022/06/19 02:44:16;;;;;;;11.20;4.53;;;;;;;27.20;43.12;100588.28;5023148;28;98582;-70
2022/06/19 02:46:42;;;;;;;8.38;4.43;;;;;;;27.16;43.20;100587.78;5029397;27;96807;-71
2022/06/19 02:49:10;;;;;;;9.30;3.97;;;;;;;27.15;43.39;100579.81;5026410;27;96907;-71
2022/06/19 02:51:36;;;;;;;10.20;4.07;;;;;;;26.97;43.81;100577.22;5024494;28;102590;-70
2022/06/19 02:54:03;;;;;;;8.52;4.65;;;;;;;27.02;43.85;100577.56;5025251;27;98996;-70
2022/06/19 02:56:29;;;;;;;6.35;4.18;;;;;;;26.89;43.92;100569.03;5027877;27;97120;-71
2022/06/19 02:58:56;;;;;;;13.60;4.50;;;;;;;26.93;43.91;100570.41;5028875;27;96937;-71
2022/06/19 03:01:22;;;;;;;7.82;4.63;;;;;;;26.91;43.85;100573.28;5028842;28;100427;-71
2022/06/19 03:03:48;;;;;;;9.15;4.30;;;;;;;26.86;44.14;100567.47;5029822;27;98810;-70
2022/06/19 03:06:16;;;;;;;11.13;4.72;;;;;;;26.93;43.69;100562.28;5027736;28;97638;-70
2022/06/19 03:08:43;;;;;;;9.55;4.65;;;;;;;26.82;44.17;100559.84;5029949;27;98394;-71
2022/06/19 03:11:10;;;;;;;12.63;4.57;;;;;;;26.63;44.74;100551.97;5030101;28;102058;-71
2022/06/19 03:13:37;;;;;;;14.48;4.90;;;;;;;26.68;44.40;100555.03;5031758;27;97507;-71
2022/06/19 03:16:06;;;;;;;9.98;4.53;;;;;;;26.77;44.51;100543.22;5027807;27;97346;-71
2022/06/19 03:18:35;;;;;;;10.40;4.85;;;;;;;26.85;44.20;100551.34;5027587;27;96894;-72
2022/06/19 03:21:01;;;;;;;6.53;4.72;;;;;;;26.83;44.06;100542.56;5029458;27;99037;-72
2022/06/19 03:23:29;;;;;;;11.38;4.18;;;;;;;26.77;44.15;100537.78;5030892;27;98809;-73
2022/06/19 03:25:55;;;;;;;6.55;4.40;;;;;;;26.93;43.92;100537.88;5029840;27;96772;-73
2022/06/19 03:28:22;;;;;;;6.60;4.43;;;;;;;26.95;43.90;100527.72;5031013;27;97092;-71
2022/06/19 03:30:51;;;;;;;7.90;4.72;;;;;;;26.98;43.97;100524.66;5032065;27;98770;-71
2022/06/19 03:33:17;;;;;;;9.15;4.47;;;;;;;27.24;43.17;100516.44;5028785;27;96855;-72
2022/06/19 03:35:44;;;;;;;14.18;4.80;;;;;;;27.18;43.43;100501.66;5030939;27;96792;-71
2022/06/19 03:38:10;;;;;;;9.70;4.22;;;;;;;27.23;43.38;100496.59;5029883;27;97009;-71
2022/06/19 03:40:38;;;;;;;9.52;4.38;;;;;;;27.30;43.08;100497.63;5027310;27;98965;-71
2022/06/19 03:43:04;;;;;;;6.00;4.35;;;;;;;27.18;43.53;100504.38;5031024;27;98778;-71
2022/06/19 03:45:31;;;;;;;10.90;4.30;;;;;;;27.21;43.58;100504.03;5025463;27;96733;-71
2022/06/19 03:47:57;;;;;;;9.25;4.38;;;;;;;27.21;43.40;100504.03;5027505;27;96843;-71
2022/06/19 03:50:24;;;;;;;10.50;4.70;;;;;;;27.25;43.43;100489.13;5029888;27;99418;-71
2022/06/19 03:52:50;;;;;;;13.43;4.78;;;;;;;27.20;43.41;100494.22;5030685;27;98847;-71
2022/06/19 03:55:17;;;;;;;13.32;4.55;;;;;;;27.24;43.39;100492.84;5029858;28;97130;-71
2022/06/19 03:57:44;;;;;;;9.38;4.93;;;;;;;27.48;43.06;100492.03;5028622;27;96936;-70
2022/06/19 04:00:14;;;;;;;8.57;4.78;;;;;;;27.26;43.19;100482.69;5027360;27;99280;-70
2022/06/19 04:02:41;;;;;;;7.45;5.20;;;;;;;27.28;43.38;100486.09;5030782;28;97789;-70
2022/06/19 04:05:08;;;;;;;10.15;4.82;;;;;;;27.66;42.74;100481.03;5025218;27;99221;-71
2022/06/19 04:07:35;;;;;;;14.82;5.13;;;;;;;27.50;43.16;100476.44;5028208;28;96916;-71
2022/06/19 04:10:02;;;;;;;8.35;4.93;;;;;;;27.20;43.66;100475.22;5019376;27;99342;-72
2022/06/19 04:12:28;;;;;;;7.22;4.65;;;;;;;27.71;42.60;100473.22;5030800;28;99432;-71
2022/06/19 04:14:56;;;;;;;10.70;4.85;;;;;;;27.71;42.75;100467.78;5030459;27;96708;-72
2022/06/19 04:17:22;;;;;;;16.70;6.10;;;;;;;27.67;42.67;100464.56;5029486;28;97241;-72
2022/06/19 04:19:49;;;;;;;11.63;5.35;;;;;;;27.49;43.20;100458.47;5032592;28;98920;-70
2022/06/19 04:22:15;;;;;;;11.50;5.45;;;;;;;27.53;43.07;100457.13;5034232;28;101157;-71
2022/06/19 04:24:41;;;;;;;9.73;5.05;;;;;;;27.35;43.34;100441.00;5031581;27;98308;-71
2022/06/19 04:27:08;;;;;;;10.98;5.00;;;;;;;27.66;42.90;100437.59;5028736;28;96947;-71
2022/06/19 04:29:36;;;;;;;8.52;5.47;;;;;;;27.33;43.60;100437.59;5031703;28;99369;-72
2022/06/19 04:32:05;;;;;;;11.25;4.80;;;;;;;27.34;43.35;100435.72;5032227;28;99323;-71
2022/06/19 04:34:31;;;;;;;8.45;4.85;;;;;;;27.53;42.92;100429.13;5033264;27;97257;-71
2022/06/19 04:36:57;;;;;;;11.27;5.22;;;;;;;27.13;43.97;100417.25;5032951;28;96833;-71
2022/06/19 04:39:24;;;;;;;11.05;5.57;;;;;;;27.26;43.48;100420.28;5030765;27;99080;-72
2022/06/19 04:41:50;;;;;;;8.45;5.22;;;;;;;27.51;43.23;100425.69;5031629;28;99851;-72
2022/06/19 04:44:18;;;;;;;8.40;5.82;;;;;;;27.38;43.17;100427.06;5031946;28;98636;-72
2022/06/19 04:46:45;;;;;;;11.52;5.50;;;;;;;27.55;43.07;100435.25;5032287;27;96901;-72
2022/06/19 04:49:15;;;;;;;11.73;5.95;;;;;;;27.73;42.45;100431.31;5031328;27;98896;-72
2022/06/19 04:51:42;;;;;;;13.25;5.63;;;;;;;27.93;42.36;100434.50;5035331;27;102431;-71
2022/06/19 04:54:09;;;;;;;13.05;6.03;;;;;;;27.82;42.45;100434.88;5026524;27;98623;-72
2022/06/19 04:56:36;;;;;;;13.50;6.13;;;;;;;27.88;42.34;100434.19;5033468;27;98874;-72
2022/06/19 04:59:03;;;;;;;13.43;5.65;;;;;;;28.28;41.37;100418.81;5028549;27;99331;-72
2022/06/19 05:01:32;;;;;;;8.90;5.78;;;;;;;28.21;41.52;100420.53;5029102;28;99006;-71
2022/06/19 05:04:01;;;;;;;21.05;5.97;;;;;;;28.45;41.33;100423.97;5029178;27;96949;-72
2022/06/19 05:06:30;;;;;;;16.63;5.35;;;;;;;28.70;40.20;100418.41;5028736;27;96767;-71
2022/06/19 05:08:57;;;;;;;12.65;6.22;;;;;;;29.03;40.00;100416.34;5032343;27;99342;-71
2022/06/19 05:11:25;;;;;;;12.50;5.88;;;;;;;28.79;39.97;100415.50;5030912;28;98619;-71
2022/06/19 05:13:51;;;;;;;21.65;5.97;;;;;;;28.53;40.22;100407.63;5033361;27;96846;-71
2022/06/19 05:16:20;;;;;;;12.57;5.57;;;;;;;29.34;38.98;100405.44;5028231;27;98110;-71
2022/06/19 05:18:47;;;;;;;11.88;5.93;;;;;;;29.96;37.80;100397.81;5026203;27;101769;-71
2022/06/19 05:21:13;;;;;;;15.60;6.80;;;;;;;29.58;38.01;100392.41;5032046;28;99046;-71
2022/06/19 05:23:44;;;;;;;11.68;5.90;;;;;;;29.27;38.88;100392.53;5028988;27;96980;-71
2022/06/19 05:26:14;;;;;;;14.15;6.28;;;;;;;28.94;39.58;100388.38;5029797;27;97253;-70
2022/06/19 05:28:40;;;;;;;12.15;5.50;;;;;;;29.20;38.96;100382.56;5030563;27;97828;-70
2022/06/19 05:31:07;;;;;;;14.82;6.30;;;;;;;29.09;39.12;100382.97;5032855;27;98976;-70
2022/06/19 05:33:34;;;;;;;12.35;6.25;;;;;;;29.14;38.93;100364.25;5023400;27;96757;-69
2022/06/19 05:36:00;;;;;;;11.48;5.93;;;;;;;29.07;38.51;100371.44;5028580;27;96857;-70
2022/06/19 05:38:28;;;;;;;16.38;6.00;;;;;;;28.90;38.88;100368.00;5030055;28;97768;-70
2022/06/19 05:40:57;;;;;;;15.65;5.82;;;;;;;29.10;38.41;100365.63;5027340;28;99580;-70
2022/06/19 05:43:26;;;;;;;15.85;6.32;;;;;;;29.24;38.40;100356.66;5029816;28;97910;-71
2022/06/19 05:45:54;;;;;;;14.85;5.90;;;;;;;29.45;38.00;100355.97;5029454;28;98797;-70
2022/06/19 05:48:21;;;;;;;13.02;5.07;;;;;;;29.43;37.99;100348.00;5030861;27;99480;-70
2022/06/19 05:50:57;;;;;;;11.13;5.55;;;;;;;29.51;37.66;100345.19;5031744;28;100342;-70
2022/06/19 05:53:24;;;;;;;13.60;5.78;;;;;;;29.57;37.49;100333.56;5034840;27;97381;-70
2022/06/19 05:55:51;;;;;;;13.70;5.78;;;;;;;29.75;36.89;100330.44;5032647;27;96885;-71
2022/06/19 05:58:19;;;;;;;12.85;5.55;;;;;;;30.00;36.37;100328.28;5022034;27;99550;-72
2022/06/19 06:00:45;;;;;;;15.00;6.43;;;;;;;30.47;35.58;100336.84;5029088;28;98766;-70
2022/06/19 06:03:13;;;;;;;11.50;5.45;;;;;;;30.42;35.33;100325.69;5031993;27;99314;-71
2022/06/19 06:05:39;;;;;;;19.17;6.15;;;;;;;30.48;35.19;100333.09;5032612;27;96806;-70
2022/06/19 06:08:06;;;;;;;12.38;5.28;;;;;;;30.35;34.89;100326.63;5028950;28;99540;-70
2022/06/19 06:10:32;;;;;;;14.65;5.90;;;;;;;30.49;34.80;100334.81;5033205;27;102231;-71
2022/06/19 06:12:59;;;;;;;18.98;6.13;;;;;;;30.61;34.80;100328.84;5032188;27;97032;-71
2022/06/19 06:15:26;;;;;;;24.42;6.15;;;;;;;30.85;33.95;100326.56;5034343;27;96850;-71
2022/06/19 06:17:52;;;;;;;17.25;5.68;;;;;;;30.82;34.08;100317.94;5032411;27;98918;-70
2022/06/19 06:20:19;;;;;;;22.70;6.22;;;;;;;31.05;33.41;100306.84;5032950;27;99468;-73
2022/06/19 06:22:45;;;;;;;17.13;5.50;;;;;;;31.20;32.98;100305.69;5022894;27;97740;-71
2022/06/19 06:25:12;;;;;;;14.40;5.45;;;;;;;31.00;33.34;100310.13;5031490;27;97410;-71
2022/06/19 06:27:39;;;;;;;17.17;6.15;;;;;;;31.28;33.23;100301.97;5030925;27;99446;-71
2022/06/19 06:30:07;;;;;;;13.55;5.65;;;;;;;31.31;32.97;100287.09;5028916;27;97988;-71
2022/06/19 06:32:48;;;;;;;16.80;5.32;;;;;;;31.59;32.23;100280.56;5024757;27;100335;-71
2022/06/19 06:35:15;;;;;;;21.40;5.50;;;;;;;31.56;32.87;100271.91;5027055;28;96950;-71
2022/06/19 06:37:41;;;;;;;18.45;5.65;;;;;;;31.61;32.36;100274.91;5030713;27;99464;-71
2022/06/19 06:40:10;;;;;;;17.95;5.45;;;;;;;32.06;31.90;100276.16;5031463;28;98845;-71
2022/06/19 06:42:36;;;;;;;17.90;5.60;;;;;;;32.14;31.12;100264.25;5033935;27;96792;-71
2022/06/19 06:45:04;;;;;;;14.98;5.22;;;;;;;32.02;31.23;100262.09;5031536;28;96738;-73
2022/06/19 06:47:30;;;;;;;24.35;5.53;;;;;;;32.35;30.99;100253.16;5032328;27;97577;-70
2022/06/19 06:49:58;;;;;;;19.52;4.95;;;;;;;32.39;31.07;100247.06;5030503;27;98042;-71
2022/06/19 06:52:24;;;;;;;13.00;5.00;;;;;;;32.60;30.62;100251.50;5035809;27;97269;-71
2022/06/19 06:54:50;;;;;;;15.48;6.18;;;;;;;32.29;30.90;100245.78;5028306;27;96871;-71
2022/06/19 06:57:17;;;;;;;14.13;5.15;;;;;;;32.33;30.36;100242.41;5027967;27;98949;-71
2022/06/19 06:59:43;;;;;;;17.58;5.32;;;;;;;32.46;30.50;100236.13;5025487;27;99087;-70
2022/06/19 07:02:11;;;;;;;13.27;4.85;;;;;;;32.27;30.93;100232.31;5031624;27;96967;-71
2022/06/19 07:04:37;;;;;;;19.50;5.30;;;;;;;32.29;30.67;100232.97;5030246;27;96828;-71
2022/06/19 07:07:05;;;;;;;15.95;5.70;;;;;;;32.57;30.13;100240.97;5028317;27;98991;-71
2022/06/19 07:09:32;;;;;;;19.60;5.30;;;;;;;32.64;30.46;100239.09;5031772;27;98701;-70
2022/06/19 07:11:58;;;;;;;13.20;4.95;;;;;;;32.61;30.50;100239.53;5031722;27;97349;-71
2022/06/19 07:14:24;;;;;;;14.23;5.05;;;;;;;32.90;30.06;100223.75;5024250;28;97016;-71
2022/06/19 07:16:51;;;;;;;16.42;4.60;;;;;;;32.84;29.83;100212.59;5033179;27;99024;-71
2022/06/19 07:19:17;;;;;;;12.50;4.10;;;;;;;33.28;29.38;100207.53;5029768;28;99319;-72
2022/06/19 07:21:44;;;;;;;20.23;4.45;;;;;;;33.40;29.20;100209.38;5027739;27;97167;-71
2022/06/19 07:24:12;;;;;;;15.60;4.90;;;;;;;33.56;28.56;100217.09;5028078;27;96851;-71
2022/06/19 07:26:38;;;;;;;15.88;4.88;;;;;;;33.51;28.29;100216.06;5029197;27;99241;-72
2022/06/19 07:29:05;;;;;;;12.48;4.50;;;;;;;33.41;28.18;100211.03;5033403;27;99320;-71
2022/06/19 07:31:31;;;;;;;20.35;4.30;;;;;;;33.73;28.17;100219.41;5034086;27;96800;-71
2022/06/19 07:33:58;;;;;;;18.40;4.47;;;;;;;33.80;28.36;100212.00;5033333;28;96871;-72
2022/06/19 07:36:25;;;;;;;16.23;4.38;;;;;;;34.13;27.79;100220.03;5030067;27;98949;-71
2022/06/19 07:38:52;;;;;;;15.55;4.57;;;;;;;34.29;27.51;100209.41;5030911;27;98747;-71
2022/06/19 07:41:20;;;;;;;15.63;4.57;;;;;;;34.44;27.32;100216.47;5028035;27;97257;-71
2022/06/19 07:43:50;;;;;;;22.98;4.38;;;;;;;34.07;27.44;100205.28;5032931;27;96819;-71
2022/06/19 07:46:17;;;;;;;21.25;5.15;;;;;;;34.20;27.18;100213.44;5031616;28;101399;-71
2022/06/19 07:51:30;;;;;;;15.45;4.45;;;;;;;34.47;26.72;100227.00;5036965;27;96732;-72
2022/06/19 07:53:57;;;;;;;12.70;4.25;;;;;;;34.56;26.88;100228.41;5034675;27;96797;-72
2022/06/19 07:56:25;;;;;;;15.93;4.00;;;;;;;34.51;26.63;100226.34;5032224;28;97739;-71
2022/06/19 07:58:51;;;;;;;15.60;4.13;;;;;;;34.77;26.02;100219.84;5033788;27;98841;-71
2022/06/19 08:01:18;;;;;;;11.43;4.13;;;;;;;34.79;26.31;100223.16;5033367;28;96781;-72
2022/06/19 08:03:46;;;;;;;21.83;4.93;;;;;;;34.69;25.54;100222.81;5037555;27;97217;-71
2022/06/19 08:06:13;;;;;;;17.00;4.03;;;;;;;34.90;25.46;100227.94;5032113;28;98905;-72
2022/06/19 08:08:40;;;;;;;14.10;3.85;;;;;;;34.98;25.53;100222.19;5036935;27;101088;-72
2022/06/19 08:11:06;;;;;;;19.20;4.47;;;;;;;35.15;25.04;100230.66;5037327;27;96668;-71
2022/06/19 08:13:35;;;;;;;17.30;3.10;;;;;;;34.94;24.83;100215.44;5037621;27;97472;-71
2022/06/19 08:16:03;;;;;;;16.10;3.42;;;;;;;35.07;25.11;100203.47;5036297;27;99948;-71
2022/06/19 08:18:30;;;;;;;14.65;3.38;;;;;;;35.36;23.96;100201.94;5035709;27;99149;-72
2022/06/19 08:20:57;;;;;;;15.68;3.75;;;;;;;35.32;24.71;100211.69;5036044;27;96817;-72
2022/06/19 08:23:23;;;;;;;19.25;3.67;;;;;;;35.31;24.62;100210.03;5034607;28;96949;-71
2022/06/19 08:25:50;;;;;;;21.98;3.55;;;;;;;35.58;24.49;100208.63;5035528;27;98940;-71
2022/06/19 08:28:19;;;;;;;16.88;4.15;;;;;;;35.43;23.92;100180.75;5035210;27;99453;-71
2022/06/19 08:30:47;;;;;;;17.15;3.88;;;;;;;35.22;24.39;100186.69;5034910;27;96799;-71
2022/06/19 08:33:14;;;;;;;14.57;4.18;;;;;;;35.53;24.16;100179.13;5034256;27;96941;-71
2022/06/19 08:35:45;;;;;;;15.23;3.42;;;;;;;35.79;23.92;100175.22;5033443;27;98095;-72
2022/06/19 08:38:18;;;;;;;24.50;5.68;;;;;;;35.67;23.18;100181.69;5035962;27;99197;-73
2022/06/19 08:40:54;;;;;;;24.25;4.80;;;;;;;35.72;23.29;100179.94;5032277;27;96832;-71
2022/06/19 08:43:39;;;;;;;28.25;5.80;;;;;;;35.80;23.31;100170.56;5038125;27;96731;-72
2022/06/19 08:46:19;;;;;;;20.65;5.85;;;;;;;35.87;22.80;100161.16;5031864;27;99556;-71
2022/06/19 08:48:56;;;;;;;29.00;5.22;;;;;;;36.09;22.75;100160.63;5030005;27;98847;-71
2022/06/19 08:51:34;;;;;;;30.45;5.60;;;;;;;35.94;22.30;100156.41;5036772;27;96750;-72
2022/06/19 08:54:27;;;;;;;18.02;6.20;;;;;;;35.94;22.54;100161.91;5034535;28;97049;-73
2022/06/19 08:57:02;;;;;;;31.45;7.40;;;;;;;36.19;22.07;100170.00;5018383;27;98339;-72
2022/06/19 08:59:41;;;;;;;23.27;6.97;;;;;;;35.80;22.43;100176.06;5031018;27;97764;-71
2022/06/19 09:02:19;;;;;;;27.45;7.45;;;;;;;35.84;22.28;100164.34;5033161;27;96827;-72
2022/06/19 09:08:04;;;;;;;28.00;7.22;;;;;;;36.34;21.85;100158.56;5026752;28;97371;-71
2022/06/19 09:10:43;;;;;;;25.50;8.10;;;;;;;36.36;22.00;100156.41;5032000;27;99158;-72
2022/06/19 09:13:23;;;;;;;21.25;7.47;;;;;;;36.70;21.96;100150.13;5031433;27;96749;-73
2022/06/19 09:16:00;;;;;;;25.92;7.38;;;;;;;36.55;21.62;100152.50;5027483;28;96959;-72
2022/06/19 09:18:40;;;;;;;23.75;7.43;;;;;;;36.86;21.37;100147.72;5033604;27;101516;-71
2022/06/19 09:21:11;;;;;;;31.38;6.90;;;;;;;36.88;21.56;100173.13;5026819;27;99059;-72
2022/06/19 09:24:09;;;;;;;23.13;6.00;;;;;;;36.66;21.26;100148.09;5029806;27;96886;-71
2022/06/19 09:26:41;;;;;;;27.67;6.45;;;;;;;36.72;21.17;100142.47;5014814;27;97306;-72
2022/06/19 09:29:14;;;;;;;27.65;6.53;;;;;;;37.01;21.07;100137.06;5027266;27;99335;-71
2022/06/19 09:31:43;;;;;;;23.33;6.20;;;;;;;37.16;20.79;100144.84;5027534;27;98906;-72
2022/06/19 09:34:19;;;;;;;19.98;5.80;;;;;;;37.12;20.62;100136.25;5033954;28;97078;-72
2022/06/19 09:36:52;;;;;;;23.95;5.43;;;;;;;36.99;20.34;100136.47;5028592;27;96799;-71
2022/06/19 09:39:25;;;;;;;16.73;5.45;;;;;;;36.90;20.46;100129.66;5032353;27;98867;-72
2022/06/19 09:41:56;;;;;;;21.50;4.30;;;;;;;36.97;19.72;100124.84;5029335;28;99290;-71
2022/06/19 09:44:32;;;;;;;31.70;4.53;;;;;;;36.76;19.71;100114.47;5033696;27;96687;-72
2022/06/19 09:47:05;;;;;;;29.10;3.60;;;;;;;36.43;19.81;100107.59;5032861;27;97785;-71
2022/06/19 09:49:39;;;;;;;26.23;5.25;;;;;;;36.38;19.11;100117.66;5032849;27;97684;-73
2022/06/19 09:52:11;;;;;;;41.08;4.80;;;;;;;36.50;19.09;100119.31;5032161;27;98093;-74
2022/06/19 09:54:42;;;;;;;45.58;5.10;;;;;;;36.62;19.46;100109.19;5033449;27;96789;-71
2022/06/19 09:57:12;;;;;;;22.38;3.80;;;;;;;36.31;19.41;100106.75;5030178;27;96763;-71
2022/06/19 09:59:44;;;;;;;22.67;3.70;;;;;;;36.40;19.38;100116.34;5026918;28;99263;-74
2022/06/19 10:02:20;;;;;;;20.83;3.70;;;;;;;36.37;19.50;100122.31;5028449;27;98779;-71
2022/06/19 10:04:53;;;;;;;18.05;3.47;;;;;;;36.72;19.12;100108.59;5032893;27;96651;-71
2022/06/19 10:07:26;;;;;;;20.15;3.72;;;;;;;36.85;19.52;100113.03;5029354;27;96774;-71
2022/06/19 10:09:57;;;;;;;30.10;3.92;;;;;;;37.28;19.12;100116.22;5031783;27;99837;-72
2022/06/19 10:12:30;;;;;;;23.80;4.13;;;;;;;37.23;19.10;100116.09;5029191;27;98829;-71
2022/06/19 10:15:01;;;;;;;20.35;3.92;;;;;;;37.30;18.99;100116.78;5032797;27;96766;-71
2022/06/19 10:17:35;;;;;;;20.42;4.40;;;;;;;37.24;18.86;100112.25;5031123;27;96901;-71
2022/06/19 10:20:12;;;;;;;22.27;4.15;;;;;;;37.14;19.24;100101.03;5032191;27;99013;-71
2022/06/19 10:22:52;;;;;;;23.05;4.18;;;;;;;37.56;18.79;100096.09;5032039;27;98910;-72
2022/06/19 10:25:40;;;;;;;19.50;4.32;;;;;;;37.77;19.20;100105.63;5032967;27;96809;-72
2022/06/19 10:28:22;;;;;;;22.35;4.57;;;;;;;37.26;19.16;100096.34;5030538;27;98119;-71
2022/06/19 10:30:59;;;;;;;19.48;3.50;;;;;;;37.19;19.56;100094.78;5031946;27;99120;-70
2022/06/19 10:33:38;;;;;;;25.35;3.97;;;;;;;37.32;19.12;100091.75;5031403;28;97712;-71
2022/06/19 10:36:14;;;;;;;20.00;3.70;;;;;;;37.39;18.94;100109.00;5029693;27;96740;-72
2022/06/19 10:38:57;;;;;;;24.90;4.25;;;;;;;37.36;19.16;100102.03;5031120;28;96781;-70
2022/06/19 10:44:20;;;;;;;20.10;4.03;;;;;;;37.57;19.12;100094.16;5027911;28;96957;-71
2022/06/19 10:46:55;;;;;;;22.27;3.63;;;;;;;37.18;19.39;100093.94;5027218;28;97600;-72
2022/06/19 10:49:35;;;;;;;20.20;4.32;;;;;;;37.23;19.13;100083.03;5030293;27;97433;-72
2022/06/19 10:52:12;;;;;;;21.17;3.58;;;;;;;37.23;19.01;100083.03;5031986;27;99331;-71
2022/06/19 10:54:59;;;;;;;23.95;3.65;;;;;;;37.16;19.46;100078.75;5028032;28;98131;-72
2022/06/19 10:57:37;;;;;;;141.63;11.07;;;;;;;37.04;19.43;100078.75;5027537;28;96690;-71
2022/06/19 11:00:05;;;;;;;27.75;4.03;;;;;;;37.29;19.29;100073.78;5030646;27;96752;-71
2022/06/19 11:05:29;;;;;;;19.70;3.97;;;;;;;37.48;18.96;100067.00;5030282;27;96978;-71
2022/06/19 11:07:57;;;;;;;21.52;4.03;;;;;;;37.76;19.17;100068.09;5031686;28;97157;-72
2022/06/19 11:10:37;;;;;;;14.45;3.83;;;;;;;37.84;18.75;100076.81;5030075;28;97036;-71
2022/06/19 11:13:05;;;;;;;21.63;4.30;;;;;;;37.67;18.84;100062.19;5031345;27;99451;-72
2022/06/19 11:15:34;;;;;;;16.33;3.45;;;;;;;37.65;18.88;100063.50;5031116;27;99141;-70
2022/06/19 11:18:11;;;;;;;28.40;4.68;;;;;;;37.63;18.73;100057.38;5020546;27;97779;-72
2022/06/19 11:20:39;;;;;;;23.98;3.80;;;;;;;37.10;19.56;100047.47;5026066;27;96958;-73
2022/06/19 11:23:21;;;;;;;16.58;2.90;;;;;;;37.33;19.25;100039.19;5026895;27;97638;-72
2022/06/19 11:25:59;;;;;;;20.98;3.80;;;;;;;37.42;18.85;100048.69;5024705;27;98806;-71
2022/06/19 11:28:41;;;;;;;23.92;3.75;;;;;;;37.64;18.72;100057.16;5028572;27;96829;-71
2022/06/19 11:31:12;;;;;;;21.73;4.22;;;;;;;37.79;18.81;100043.66;5031868;27;97190;-71
2022/06/19 11:33:39;;;;;;;18.58;3.80;;;;;;;37.46;19.07;100062.84;5030419;27;99010;-71
2022/06/19 11:36:08;;;;;;;19.75;4.22;;;;;;;37.63;19.03;100055.47;5031161;28;98861;-71
2022/06/19 11:38:41;;;;;;;17.92;4.30;;;;;;;38.03;19.06;100046.25;5031208;27;96969;-72
2022/06/19 11:41:17;;;;;;;21.27;3.67;;;;;;;38.48;18.75;100052.53;5031205;27;96921;-71